sensor_id;sensor_type;location;lat;lon;timestamp;P1;durP1;ratioP1;P2;durP2;ratioP2
13331;SDS011;6735;51.456;12.626;2024-03-08T00:02:05;26.37;;;16.90;;
13331;SDS011;6735;51.456;12.626;2024-03-08T00:04:32;27.50;;;16.37;;
13331;SDS011;6735;51.456;12.626;2024-03-08T00:06:57;27.93;;;16.73;;
13331;SDS011;6735;51.456;12.626;2024-03-08T00:09:22;28.13;;;17.70;;
13331;SDS011;6735;51.456;12.626;2024-03-08T00:11:48;30.03;;;17.00;;
13331;SDS011;6735;51.456;12.626;2024-03-08T00:14:15;26.90;;;17.20;;
13331;SDS011;6735;51.456;12.626;2024-03-08T00:16:41;26.77;;;16.73;;
13331;SDS011;6735;51.456;12.626;2024-03-08T00:19:08;25.93;;;16.20;;
13331;SDS011;6735;51.456;12.626;2024-03-08T00:21:34;28.77;;;17.03;;
13331;SDS011;6735;51.456;12.626;2024-03-08T00:24:00;29.20;;;17.07;;
13331;SDS011;6735;51.456;12.626;2024-03-08T00:26:26;27.13;;;16.67;;
13331;SDS011;6735;51.456;12.626;2024-03-08T00:28:51;27.53;;;16.27;;
13331;SDS011;6735;51.456;12.626;2024-03-08T00:31:18;27.13;;;15.87;;
13331;SDS011;6735;51.456;12.626;2024-03-08T00:33:43;27.67;;;16.67;;
13331;SDS011;6735;51.456;12.626;2024-03-08T00:36:09;28.37;;;16.53;;
13331;SDS011;6735;51.456;12.626;2024-03-08T00:38:34;26.53;;;15.80;;
13331;SDS011;6735;51.456;12.626;2024-03-08T00:41:00;26.13;;;15.73;;
13331;SDS011;6735;51.456;12.626;2024-03-08T00:43:25;27.70;;;16.13;;
13331;SDS011;6735;51.456;12.626;2024-03-08T00:45:51;24.97;;;16.17;;
13331;SDS011;6735;51.456;12.626;2024-03-08T00:48:16;28.60;;;17.40;;
13331;SDS011;6735;51.456;12.626;2024-03-08T00:50:42;27.07;;;16.70;;
13331;SDS011;6735;51.456;12.626;2024-03-08T00:53:10;32.60;;;15.93;;
13331;SDS011;6735;51.456;12.626;2024-03-08T00:55:36;26.53;;;16.33;;
13331;SDS011;6735;51.456;12.626;2024-03-08T00:58:02;25.20;;;15.87;;
13331;SDS011;6735;51.456;12.626;2024-03-08T01:00:28;27.73;;;16.20;;
13331;SDS011;6735;51.456;12.626;2024-03-08T01:02:54;27.13;;;16.87;;
13331;SDS011;6735;51.456;12.626;2024-03-08T01:05:19;28.07;;;16.77;;
13331;SDS011;6735;51.456;12.626;2024-03-08T01:07:45;27.63;;;15.73;;
13331;SDS011;6735;51.456;12.626;2024-03-08T01:10:11;27.50;;;16.20;;
13331;SDS011;6735;51.456;12.626;2024-03-08T01:12:37;27.67;;;16.60;;
13331;SDS011;6735;51.456;12.626;2024-03-08T01:15:04;27.07;;;16.90;;
13331;SDS011;6735;51.456;12.626;2024-03-08T01:17:30;27.67;;;15.93;;
13331;SDS011;6735;51.456;12.626;2024-03-08T01:19:56;26.90;;;16.10;;
13331;SDS011;6735;51.456;12.626;2024-03-08T01:22:21;27.43;;;15.87;;
13331;SDS011;6735;51.456;12.626;2024-03-08T01:24:47;26.10;;;15.73;;
13331;SDS011;6735;51.456;12.626;2024-03-08T01:27:13;24.07;;;14.53;;
13331;SDS011;6735;51.456;12.626;2024-03-08T01:29:38;26.43;;;15.03;;
13331;SDS011;6735;51.456;12.626;2024-03-08T01:32:04;28.03;;;15.47;;
13331;SDS011;6735;51.456;12.626;2024-03-08T01:34:31;27.63;;;15.70;;
13331;SDS011;6735;51.456;12.626;2024-03-08T01:36:58;24.60;;;14.77;;
13331;SDS011;6735;51.456;12.626;2024-03-08T01:39:24;23.70;;;15.07;;
13331;SDS011;6735;51.456;12.626;2024-03-08T01:41:49;24.77;;;15.30;;
13331;SDS011;6735;51.456;12.626;2024-03-08T01:44:15;25.97;;;15.53;;
13331;SDS011;6735;51.456;12.626;2024-03-08T01:46:43;29.03;;;15.97;;
13331;SDS011;6735;51.456;12.626;2024-03-08T01:49:10;29.37;;;16.23;;
13331;SDS011;6735;51.456;12.626;2024-03-08T01:51:35;26.90;;;15.47;;
13331;SDS011;6735;51.456;12.626;2024-03-08T01:54:02;26.30;;;15.70;;
13331;SDS011;6735;51.456;12.626;2024-03-08T01:56:29;32.43;;;16.17;;
13331;SDS011;6735;51.456;12.626;2024-03-08T01:58:56;26.57;;;15.53;;
13331;SDS011;6735;51.456;12.626;2024-03-08T02:01:24;28.17;;;15.20;;
13331;SDS011;6735;51.456;12.626;2024-03-08T02:03:50;24.17;;;14.93;;
13331;SDS011;6735;51.456;12.626;2024-03-08T02:06:15;26.83;;;15.33;;
13331;SDS011;6735;51.456;12.626;2024-03-08T02:08:42;25.27;;;15.27;;
13331;SDS011;6735;51.456;12.626;2024-03-08T02:11:11;24.53;;;14.67;;
13331;SDS011;6735;51.456;12.626;2024-03-08T02:13:37;31.70;;;16.03;;
13331;SDS011;6735;51.456;12.626;2024-03-08T02:16:02;26.70;;;16.20;;
13331;SDS011;6735;51.456;12.626;2024-03-08T02:18:29;25.90;;;14.77;;
13331;SDS011;6735;51.456;12.626;2024-03-08T02:20:56;27.43;;;15.90;;
13331;SDS011;6735;51.456;12.626;2024-03-08T02:23:22;25.93;;;15.23;;
13331;SDS011;6735;51.456;12.626;2024-03-08T02:25:50;25.57;;;15.63;;
13331;SDS011;6735;51.456;12.626;2024-03-08T02:28:16;26.53;;;14.73;;
13331;SDS011;6735;51.456;12.626;2024-03-08T02:30:45;21.13;;;14.63;;
13331;SDS011;6735;51.456;12.626;2024-03-08T02:33:14;25.00;;;15.70;;
13331;SDS011;6735;51.456;12.626;2024-03-08T02:35:42;25.60;;;15.27;;
13331;SDS011;6735;51.456;12.626;2024-03-08T02:38:11;23.87;;;14.77;;
13331;SDS011;6735;51.456;12.626;2024-03-08T02:40:43;23.27;;;14.20;;
13331;SDS011;6735;51.456;12.626;2024-03-08T02:43:10;28.40;;;15.27;;
13331;SDS011;6735;51.456;12.626;2024-03-08T02:45:36;28.20;;;14.83;;
13331;SDS011;6735;51.456;12.626;2024-03-08T02:48:01;26.93;;;15.70;;
13331;SDS011;6735;51.456;12.626;2024-03-08T02:50:27;28.87;;;14.90;;
13331;SDS011;6735;51.456;12.626;2024-03-08T02:52:53;25.13;;;15.57;;
13331;SDS011;6735;51.456;12.626;2024-03-08T02:55:18;25.87;;;16.27;;
13331;SDS011;6735;51.456;12.626;2024-03-08T02:57:44;25.47;;;15.57;;
13331;SDS011;6735;51.456;12.626;2024-03-08T03:00:12;26.77;;;15.63;;
13331;SDS011;6735;51.456;12.626;2024-03-08T03:02:38;28.33;;;14.87;;
13331;SDS011;6735;51.456;12.626;2024-03-08T03:05:04;24.40;;;14.27;;
13331;SDS011;6735;51.456;12.626;2024-03-08T03:07:34;26.90;;;15.60;;
13331;SDS011;6735;51.456;12.626;2024-03-08T03:09:59;25.37;;;15.60;;
13331;SDS011;6735;51.456;12.626;2024-03-08T03:12:29;25.50;;;15.10;;
13331;SDS011;6735;51.456;12.626;2024-03-08T03:14:56;23.30;;;15.03;;
13331;SDS011;6735;51.456;12.626;2024-03-08T03:17:22;26.23;;;15.73;;
13331;SDS011;6735;51.456;12.626;2024-03-08T03:19:49;30.83;;;16.77;;
13331;SDS011;6735;51.456;12.626;2024-03-08T03:22:15;26.40;;;15.53;;
13331;SDS011;6735;51.456;12.626;2024-03-08T03:24:40;26.40;;;15.03;;
13331;SDS011;6735;51.456;12.626;2024-03-08T03:27:07;30.67;;;16.50;;
13331;SDS011;6735;51.456;12.626;2024-03-08T03:29:36;27.30;;;15.77;;
13331;SDS011;6735;51.456;12.626;2024-03-08T03:32:02;27.57;;;15.17;;
13331;SDS011;6735;51.456;12.626;2024-03-08T03:34:29;26.27;;;15.37;;
13331;SDS011;6735;51.456;12.626;2024-03-08T03:36:54;26.83;;;16.57;;
13331;SDS011;6735;51.456;12.626;2024-03-08T03:39:21;28.67;;;16.43;;
13331;SDS011;6735;51.456;12.626;2024-03-08T03:41:47;26.43;;;14.87;;
13331;SDS011;6735;51.456;12.626;2024-03-08T03:44:16;27.57;;;15.17;;
13331;SDS011;6735;51.456;12.626;2024-03-08T03:46:42;27.17;;;15.70;;
13331;SDS011;6735;51.456;12.626;2024-03-08T03:49:11;22.77;;;14.07;;
13331;SDS011;6735;51.456;12.626;2024-03-08T03:51:37;26.20;;;15.40;;
13331;SDS011;6735;51.456;12.626;2024-03-08T03:54:03;24.93;;;15.43;;
13331;SDS011;6735;51.456;12.626;2024-03-08T03:56:29;28.77;;;15.23;;
13331;SDS011;6735;51.456;12.626;2024-03-08T03:58:55;24.13;;;15.37;;
13331;SDS011;6735;51.456;12.626;2024-03-08T04:01:21;25.67;;;15.30;;
13331;SDS011;6735;51.456;12.626;2024-03-08T04:03:47;26.97;;;16.17;;
13331;SDS011;6735;51.456;12.626;2024-03-08T04:06:12;27.00;;;16.90;;
13331;SDS011;6735;51.456;12.626;2024-03-08T04:08:39;24.53;;;14.37;;
13331;SDS011;6735;51.456;12.626;2024-03-08T04:11:04;28.03;;;16.33;;
13331;SDS011;6735;51.456;12.626;2024-03-08T04:13:30;27.10;;;15.90;;
13331;SDS011;6735;51.456;12.626;2024-03-08T04:15:55;25.70;;;15.50;;
13331;SDS011;6735;51.456;12.626;2024-03-08T04:18:21;28.57;;;15.83;;
13331;SDS011;6735;51.456;12.626;2024-03-08T04:20:46;26.43;;;15.77;;
13331;SDS011;6735;51.456;12.626;2024-03-08T04:23:12;25.00;;;15.27;;
13331;SDS011;6735;51.456;12.626;2024-03-08T04:25:38;28.43;;;15.37;;
13331;SDS011;6735;51.456;12.626;2024-03-08T04:28:03;25.20;;;14.57;;
13331;SDS011;6735;51.456;12.626;2024-03-08T04:30:29;26.27;;;15.30;;
13331;SDS011;6735;51.456;12.626;2024-03-08T04:32:55;28.20;;;15.27;;
13331;SDS011;6735;51.456;12.626;2024-03-08T04:35:20;33.23;;;16.27;;
13331;SDS011;6735;51.456;12.626;2024-03-08T04:37:46;30.60;;;16.10;;
13331;SDS011;6735;51.456;12.626;2024-03-08T04:40:11;25.17;;;15.77;;
13331;SDS011;6735;51.456;12.626;2024-03-08T04:42:37;25.27;;;15.50;;
13331;SDS011;6735;51.456;12.626;2024-03-08T04:45:05;26.83;;;14.97;;
13331;SDS011;6735;51.456;12.626;2024-03-08T04:47:33;29.23;;;15.70;;
13331;SDS011;6735;51.456;12.626;2024-03-08T04:49:58;25.80;;;14.87;;
13331;SDS011;6735;51.456;12.626;2024-03-08T04:52:24;32.60;;;17.47;;
13331;SDS011;6735;51.456;12.626;2024-03-08T04:54:50;26.73;;;16.23;;
13331;SDS011;6735;51.456;12.626;2024-03-08T04:57:16;27.57;;;15.13;;
13331;SDS011;6735;51.456;12.626;2024-03-08T04:59:43;29.53;;;16.30;;
13331;SDS011;6735;51.456;12.626;2024-03-08T05:02:08;26.50;;;15.93;;
13331;SDS011;6735;51.456;12.626;2024-03-08T05:04:34;27.60;;;15.63;;
13331;SDS011;6735;51.456;12.626;2024-03-08T05:07:00;36.17;;;17.90;;
13331;SDS011;6735;51.456;12.626;2024-03-08T05:09:26;30.77;;;17.60;;
13331;SDS011;6735;51.456;12.626;2024-03-08T05:11:54;40.33;;;18.43;;
13331;SDS011;6735;51.456;12.626;2024-03-08T05:14:19;32.07;;;18.13;;
13331;SDS011;6735;51.456;12.626;2024-03-08T05:16:45;29.87;;;17.07;;
13331;SDS011;6735;51.456;12.626;2024-03-08T05:19:18;30.33;;;16.47;;
13331;SDS011;6735;51.456;12.626;2024-03-08T05:21:47;29.33;;;16.30;;
13331;SDS011;6735;51.456;12.626;2024-03-08T05:24:13;35.83;;;17.80;;
13331;SDS011;6735;51.456;12.626;2024-03-08T05:26:42;28.23;;;16.27;;
13331;SDS011;6735;51.456;12.626;2024-03-08T05:29:08;33.40;;;17.37;;
13331;SDS011;6735;51.456;12.626;2024-03-08T05:31:50;31.67;;;18.10;;
13331;SDS011;6735;51.456;12.626;2024-03-08T05:34:19;29.90;;;17.77;;
13331;SDS011;6735;51.456;12.626;2024-03-08T05:36:46;31.13;;;18.10;;
13331;SDS011;6735;51.456;12.626;2024-03-08T05:39:12;31.00;;;18.37;;
13331;SDS011;6735;51.456;12.626;2024-03-08T05:41:38;31.00;;;17.97;;
13331;SDS011;6735;51.456;12.626;2024-03-08T05:44:05;29.03;;;17.63;;
13331;SDS011;6735;51.456;12.626;2024-03-08T05:46:30;30.83;;;17.57;;
13331;SDS011;6735;51.456;12.626;2024-03-08T05:48:56;29.83;;;17.30;;
13331;SDS011;6735;51.456;12.626;2024-03-08T05:51:23;31.77;;;17.77;;
13331;SDS011;6735;51.456;12.626;2024-03-08T05:53:51;33.77;;;17.60;;
13331;SDS011;6735;51.456;12.626;2024-03-08T05:56:18;29.80;;;17.53;;
13331;SDS011;6735;51.456;12.626;2024-03-08T05:58:44;30.87;;;17.43;;
13331;SDS011;6735;51.456;12.626;2024-03-08T06:01:10;33.57;;;17.83;;
13331;SDS011;6735;51.456;12.626;2024-03-08T06:03:37;27.40;;;17.00;;
13331;SDS011;6735;51.456;12.626;2024-03-08T06:06:09;32.00;;;18.27;;
13331;SDS011;6735;51.456;12.626;2024-03-08T06:08:38;32.77;;;18.00;;
13331;SDS011;6735;51.456;12.626;2024-03-08T06:11:04;32.30;;;18.10;;
13331;SDS011;6735;51.456;12.626;2024-03-08T06:13:31;30.03;;;17.37;;
13331;SDS011;6735;51.456;12.626;2024-03-08T06:15:57;31.17;;;18.90;;
13331;SDS011;6735;51.456;12.626;2024-03-08T06:18:22;33.23;;;19.80;;
13331;SDS011;6735;51.456;12.626;2024-03-08T06:20:48;31.57;;;18.70;;
13331;SDS011;6735;51.456;12.626;2024-03-08T06:23:13;33.67;;;19.77;;
13331;SDS011;6735;51.456;12.626;2024-03-08T06:25:42;31.97;;;18.13;;
13331;SDS011;6735;51.456;12.626;2024-03-08T06:28:11;37.10;;;20.10;;
13331;SDS011;6735;51.456;12.626;2024-03-08T06:30:36;30.67;;;17.30;;
13331;SDS011;6735;51.456;12.626;2024-03-08T06:33:02;31.33;;;19.77;;
13331;SDS011;6735;51.456;12.626;2024-03-08T06:35:28;33.97;;;19.77;;
13331;SDS011;6735;51.456;12.626;2024-03-08T06:37:56;33.17;;;19.00;;
13331;SDS011;6735;51.456;12.626;2024-03-08T06:40:22;32.27;;;18.57;;
13331;SDS011;6735;51.456;12.626;2024-03-08T06:42:48;33.73;;;17.87;;
13331;SDS011;6735;51.456;12.626;2024-03-08T06:45:13;32.97;;;19.77;;
13331;SDS011;6735;51.456;12.626;2024-03-08T06:47:44;30.20;;;18.17;;
13331;SDS011;6735;51.456;12.626;2024-03-08T06:50:10;31.53;;;18.63;;
13331;SDS011;6735;51.456;12.626;2024-03-08T06:52:36;38.53;;;18.53;;
13331;SDS011;6735;51.456;12.626;2024-03-08T06:55:02;34.20;;;19.57;;
13331;SDS011;6735;51.456;12.626;2024-03-08T06:57:30;36.03;;;20.27;;
13331;SDS011;6735;51.456;12.626;2024-03-08T06:59:56;36.07;;;19.13;;
13331;SDS011;6735;51.456;12.626;2024-03-08T07:02:22;35.07;;;20.17;;
13331;SDS011;6735;51.456;12.626;2024-03-08T07:04:49;37.40;;;20.10;;
13331;SDS011;6735;51.456;12.626;2024-03-08T07:07:15;30.90;;;19.33;;
13331;SDS011;6735;51.456;12.626;2024-03-08T07:09:41;33.40;;;19.97;;
13331;SDS011;6735;51.456;12.626;2024-03-08T07:12:09;32.70;;;19.70;;
13331;SDS011;6735;51.456;12.626;2024-03-08T07:14:36;32.77;;;20.30;;
13331;SDS011;6735;51.456;12.626;2024-03-08T07:17:05;34.17;;;20.90;;
13331;SDS011;6735;51.456;12.626;2024-03-08T07:19:33;33.30;;;20.60;;
13331;SDS011;6735;51.456;12.626;2024-03-08T07:21:59;37.07;;;19.73;;
13331;SDS011;6735;51.456;12.626;2024-03-08T07:24:25;34.63;;;20.37;;
13331;SDS011;6735;51.456;12.626;2024-03-08T07:27:09;38.47;;;20.73;;
13331;SDS011;6735;51.456;12.626;2024-03-08T07:29:35;33.30;;;20.13;;
13331;SDS011;6735;51.456;12.626;2024-03-08T07:32:00;35.33;;;20.63;;
13331;SDS011;6735;51.456;12.626;2024-03-08T07:34:26;33.80;;;19.70;;
13331;SDS011;6735;51.456;12.626;2024-03-08T07:36:51;32.87;;;20.53;;
13331;SDS011;6735;51.456;12.626;2024-03-08T07:39:17;36.40;;;21.33;;
13331;SDS011;6735;51.456;12.626;2024-03-08T07:41:42;35.10;;;21.17;;
13331;SDS011;6735;51.456;12.626;2024-03-08T07:44:08;36.53;;;21.47;;
13331;SDS011;6735;51.456;12.626;2024-03-08T07:46:33;34.43;;;20.80;;
13331;SDS011;6735;51.456;12.626;2024-03-08T07:48:59;35.00;;;21.57;;
13331;SDS011;6735;51.456;12.626;2024-03-08T07:51:25;36.37;;;21.33;;
13331;SDS011;6735;51.456;12.626;2024-03-08T07:53:51;32.67;;;20.67;;
13331;SDS011;6735;51.456;12.626;2024-03-08T07:56:16;33.47;;;21.10;;
13331;SDS011;6735;51.456;12.626;2024-03-08T07:58:43;30.87;;;20.17;;
13331;SDS011;6735;51.456;12.626;2024-03-08T08:01:15;33.07;;;21.43;;
13331;SDS011;6735;51.456;12.626;2024-03-08T08:03:44;29.20;;;20.60;;
13331;SDS011;6735;51.456;12.626;2024-03-08T08:06:10;30.50;;;20.13;;
13331;SDS011;6735;51.456;12.626;2024-03-08T08:08:41;31.20;;;20.20;;
13331;SDS011;6735;51.456;12.626;2024-03-08T08:11:07;29.87;;;20.17;;
13331;SDS011;6735;51.456;12.626;2024-03-08T08:13:34;29.23;;;20.47;;
13331;SDS011;6735;51.456;12.626;2024-03-08T08:16:01;32.87;;;21.20;;
13331;SDS011;6735;51.456;12.626;2024-03-08T08:18:27;30.23;;;20.53;;
13331;SDS011;6735;51.456;12.626;2024-03-08T08:20:54;30.27;;;21.20;;
13331;SDS011;6735;51.456;12.626;2024-03-08T08:23:20;32.23;;;20.57;;
13331;SDS011;6735;51.456;12.626;2024-03-08T08:25:46;29.80;;;20.53;;
13331;SDS011;6735;51.456;12.626;2024-03-08T08:28:14;26.10;;;19.67;;
13331;SDS011;6735;51.456;12.626;2024-03-08T08:30:42;30.67;;;19.07;;
13331;SDS011;6735;51.456;12.626;2024-03-08T08:33:11;28.87;;;20.73;;
13331;SDS011;6735;51.456;12.626;2024-03-08T08:35:36;29.03;;;22.00;;
13331;SDS011;6735;51.456;12.626;2024-03-08T08:38:03;34.53;;;20.97;;
13331;SDS011;6735;51.456;12.626;2024-03-08T08:40:29;27.93;;;21.07;;
13331;SDS011;6735;51.456;12.626;2024-03-08T08:42:56;40.37;;;19.80;;
13331;SDS011;6735;51.456;12.626;2024-03-08T08:45:22;30.77;;;21.27;;
13331;SDS011;6735;51.456;12.626;2024-03-08T08:47:48;28.50;;;20.27;;
13331;SDS011;6735;51.456;12.626;2024-03-08T08:50:14;27.40;;;20.50;;
13331;SDS011;6735;51.456;12.626;2024-03-08T08:52:41;33.47;;;21.50;;
13331;SDS011;6735;51.456;12.626;2024-03-08T08:55:10;28.03;;;19.93;;
13331;SDS011;6735;51.456;12.626;2024-03-08T08:57:39;34.07;;;21.60;;
13331;SDS011;6735;51.456;12.626;2024-03-08T09:00:05;29.10;;;21.00;;
13331;SDS011;6735;51.456;12.626;2024-03-08T09:02:39;29.67;;;20.77;;
13331;SDS011;6735;51.456;12.626;2024-03-08T09:05:06;30.30;;;20.30;;
13331;SDS011;6735;51.456;12.626;2024-03-08T09:07:32;33.73;;;20.87;;
13331;SDS011;6735;51.456;12.626;2024-03-08T09:09:58;31.47;;;20.93;;
13331;SDS011;6735;51.456;12.626;2024-03-08T09:12:24;29.37;;;20.37;;
13331;SDS011;6735;51.456;12.626;2024-03-08T09:14:50;29.80;;;21.23;;
13331;SDS011;6735;51.456;12.626;2024-03-08T09:17:16;28.37;;;20.17;;
13331;SDS011;6735;51.456;12.626;2024-03-08T09:19:48;29.70;;;19.00;;
13331;SDS011;6735;51.456;12.626;2024-03-08T09:22:14;30.57;;;20.93;;
13331;SDS011;6735;51.456;12.626;2024-03-08T09:24:40;28.97;;;18.97;;
13331;SDS011;6735;51.456;12.626;2024-03-08T09:27:08;29.27;;;20.20;;
13331;SDS011;6735;51.456;12.626;2024-03-08T09:29:34;29.37;;;20.30;;
13331;SDS011;6735;51.456;12.626;2024-03-08T09:32:00;27.83;;;19.23;;
13331;SDS011;6735;51.456;12.626;2024-03-08T09:34:25;28.93;;;19.17;;
13331;SDS011;6735;51.456;12.626;2024-03-08T09:36:51;31.37;;;20.37;;
13331;SDS011;6735;51.456;12.626;2024-03-08T09:39:17;28.23;;;19.27;;
13331;SDS011;6735;51.456;12.626;2024-03-08T09:41:45;26.57;;;18.30;;
13331;SDS011;6735;51.456;12.626;2024-03-08T09:44:14;32.03;;;19.87;;
13331;SDS011;6735;51.456;12.626;2024-03-08T09:46:44;26.43;;;19.10;;
13331;SDS011;6735;51.456;12.626;2024-03-08T09:49:12;31.37;;;19.23;;
13331;SDS011;6735;51.456;12.626;2024-03-08T09:51:38;30.80;;;20.10;;
13331;SDS011;6735;51.456;12.626;2024-03-08T09:54:05;32.20;;;19.43;;
13331;SDS011;6735;51.456;12.626;2024-03-08T09:56:37;27.83;;;19.30;;
13331;SDS011;6735;51.456;12.626;2024-03-08T09:59:06;32.60;;;20.83;;
13331;SDS011;6735;51.456;12.626;2024-03-08T10:01:50;31.97;;;19.87;;
13331;SDS011;6735;51.456;12.626;2024-03-08T10:04:17;30.40;;;20.90;;
13331;SDS011;6735;51.456;12.626;2024-03-08T10:06:43;31.73;;;19.20;;
13331;SDS011;6735;51.456;12.626;2024-03-08T10:09:10;31.37;;;19.80;;
13331;SDS011;6735;51.456;12.626;2024-03-08T10:11:37;32.93;;;19.57;;
13331;SDS011;6735;51.456;12.626;2024-03-08T10:14:03;28.93;;;19.43;;
13331;SDS011;6735;51.456;12.626;2024-03-08T10:16:31;31.10;;;19.70;;
13331;SDS011;6735;51.456;12.626;2024-03-08T10:18:56;31.43;;;19.80;;
13331;SDS011;6735;51.456;12.626;2024-03-08T10:21:22;29.73;;;18.40;;
13331;SDS011;6735;51.456;12.626;2024-03-08T10:23:47;28.77;;;18.07;;
13331;SDS011;6735;51.456;12.626;2024-03-08T10:26:13;27.43;;;17.60;;
13331;SDS011;6735;51.456;12.626;2024-03-08T10:28:46;27.50;;;17.73;;
13331;SDS011;6735;51.456;12.626;2024-03-08T10:31:13;28.80;;;18.77;;
13331;SDS011;6735;51.456;12.626;2024-03-08T10:33:40;25.13;;;17.57;;
13331;SDS011;6735;51.456;12.626;2024-03-08T10:36:06;26.03;;;17.10;;
13331;SDS011;6735;51.456;12.626;2024-03-08T10:38:34;27.43;;;17.03;;
13331;SDS011;6735;51.456;12.626;2024-03-08T10:41:04;27.47;;;18.13;;
13331;SDS011;6735;51.456;12.626;2024-03-08T10:43:31;26.90;;;18.20;;
13331;SDS011;6735;51.456;12.626;2024-03-08T10:46:06;27.80;;;17.53;;
13331;SDS011;6735;51.456;12.626;2024-03-08T10:48:47;29.03;;;17.77;;
13331;SDS011;6735;51.456;12.626;2024-03-08T10:51:14;24.70;;;16.47;;
13331;SDS011;6735;51.456;12.626;2024-03-08T10:53:40;26.07;;;16.20;;
13331;SDS011;6735;51.456;12.626;2024-03-08T10:56:07;24.80;;;15.60;;
13331;SDS011;6735;51.456;12.626;2024-03-08T10:58:34;24.93;;;15.90;;
13331;SDS011;6735;51.456;12.626;2024-03-08T11:01:01;25.70;;;16.70;;
13331;SDS011;6735;51.456;12.626;2024-03-08T11:06:09;24.07;;;15.67;;
13331;SDS011;6735;51.456;12.626;2024-03-08T11:08:43;23.17;;;15.67;;
13331;SDS011;6735;51.456;12.626;2024-03-08T11:11:28;24.10;;;15.40;;
13331;SDS011;6735;51.456;12.626;2024-03-08T11:13:55;23.43;;;15.60;;
13331;SDS011;6735;51.456;12.626;2024-03-08T11:18:55;25.77;;;17.20;;
13331;SDS011;6735;51.456;12.626;2024-03-08T11:21:29;24.10;;;17.13;;
13331;SDS011;6735;51.456;12.626;2024-03-08T11:24:11;24.43;;;16.90;;
13331;SDS011;6735;51.456;12.626;2024-03-08T11:26:41;25.80;;;17.23;;
13331;SDS011;6735;51.456;12.626;2024-03-08T11:32:04;25.77;;;17.57;;
13331;SDS011;6735;51.456;12.626;2024-03-08T11:34:33;26.33;;;17.47;;
13331;SDS011;6735;51.456;12.626;2024-03-08T11:36:59;23.73;;;16.83;;
13331;SDS011;6735;51.456;12.626;2024-03-08T11:39:25;23.07;;;16.87;;
13331;SDS011;6735;51.456;12.626;2024-03-08T11:41:51;24.70;;;16.83;;
13331;SDS011;6735;51.456;12.626;2024-03-08T11:44:17;24.07;;;16.43;;
13331;SDS011;6735;51.456;12.626;2024-03-08T11:46:42;25.70;;;17.57;;
13331;SDS011;6735;51.456;12.626;2024-03-08T11:49:12;26.20;;;17.47;;
13331;SDS011;6735;51.456;12.626;2024-03-08T11:51:38;25.47;;;16.40;;
13331;SDS011;6735;51.456;12.626;2024-03-08T11:54:04;25.60;;;17.87;;
13331;SDS011;6735;51.456;12.626;2024-03-08T11:56:31;26.37;;;17.97;;
13331;SDS011;6735;51.456;12.626;2024-03-08T11:58:57;25.80;;;17.93;;
13331;SDS011;6735;51.456;12.626;2024-03-08T12:01:23;28.77;;;17.77;;
13331;SDS011;6735;51.456;12.626;2024-03-08T12:03:55;25.13;;;17.67;;
13331;SDS011;6735;51.456;12.626;2024-03-08T12:06:24;27.07;;;18.57;;
13331;SDS011;6735;51.456;12.626;2024-03-08T12:08:50;26.07;;;17.53;;
13331;SDS011;6735;51.456;12.626;2024-03-08T12:11:22;26.90;;;17.43;;
13331;SDS011;6735;51.456;12.626;2024-03-08T12:13:48;28.93;;;18.60;;
13331;SDS011;6735;51.456;12.626;2024-03-08T12:16:16;25.27;;;17.70;;
13331;SDS011;6735;51.456;12.626;2024-03-08T12:18:42;27.27;;;17.23;;
13331;SDS011;6735;51.456;12.626;2024-03-08T12:21:11;25.47;;;17.10;;
13331;SDS011;6735;51.456;12.626;2024-03-08T12:23:39;27.80;;;17.90;;
13331;SDS011;6735;51.456;12.626;2024-03-08T12:26:15;26.13;;;17.03;;
13331;SDS011;6735;51.456;12.626;2024-03-08T12:28:42;26.03;;;16.73;;
13331;SDS011;6735;51.456;12.626;2024-03-08T12:31:09;27.83;;;16.60;;
13331;SDS011;6735;51.456;12.626;2024-03-08T12:33:37;26.90;;;17.37;;
13331;SDS011;6735;51.456;12.626;2024-03-08T12:36:14;27.67;;;18.03;;
13331;SDS011;6735;51.456;12.626;2024-03-08T12:38:40;24.13;;;16.93;;
13331;SDS011;6735;51.456;12.626;2024-03-08T12:41:09;25.23;;;16.77;;
13331;SDS011;6735;51.456;12.626;2024-03-08T12:43:34;27.53;;;16.33;;
13331;SDS011;6735;51.456;12.626;2024-03-08T12:46:00;24.10;;;16.17;;
13331;SDS011;6735;51.456;12.626;2024-03-08T12:48:26;25.17;;;16.67;;
13331;SDS011;6735;51.456;12.626;2024-03-08T12:50:51;23.30;;;15.50;;
13331;SDS011;6735;51.456;12.626;2024-03-08T12:53:18;23.83;;;16.10;;
13331;SDS011;6735;51.456;12.626;2024-03-08T12:55:44;22.00;;;15.47;;
13331;SDS011;6735;51.456;12.626;2024-03-08T12:58:09;24.17;;;16.70;;
13331;SDS011;6735;51.456;12.626;2024-03-08T13:00:36;23.37;;;16.03;;
13331;SDS011;6735;51.456;12.626;2024-03-08T13:03:02;21.73;;;15.13;;
13331;SDS011;6735;51.456;12.626;2024-03-08T13:05:27;24.77;;;15.33;;
13331;SDS011;6735;51.456;12.626;2024-03-08T13:07:54;22.80;;;15.70;;
13331;SDS011;6735;51.456;12.626;2024-03-08T13:10:20;25.00;;;16.13;;
13331;SDS011;6735;51.456;12.626;2024-03-08T13:12:45;24.77;;;16.70;;
13331;SDS011;6735;51.456;12.626;2024-03-08T13:15:11;20.77;;;15.17;;
13331;SDS011;6735;51.456;12.626;2024-03-08T13:17:44;22.03;;;14.43;;
13331;SDS011;6735;51.456;12.626;2024-03-08T13:20:11;24.33;;;15.57;;
13331;SDS011;6735;51.456;12.626;2024-03-08T13:22:41;23.10;;;15.90;;
13331;SDS011;6735;51.456;12.626;2024-03-08T13:25:07;23.00;;;16.17;;
13331;SDS011;6735;51.456;12.626;2024-03-08T13:27:38;22.77;;;15.07;;
13331;SDS011;6735;51.456;12.626;2024-03-08T13:30:07;25.03;;;16.03;;
13331;SDS011;6735;51.456;12.626;2024-03-08T13:32:38;22.43;;;15.03;;
13331;SDS011;6735;51.456;12.626;2024-03-08T13:35:04;21.93;;;14.90;;
13331;SDS011;6735;51.456;12.626;2024-03-08T13:37:37;21.77;;;14.77;;
13331;SDS011;6735;51.456;12.626;2024-03-08T13:40:06;22.20;;;15.40;;
13331;SDS011;6735;51.456;12.626;2024-03-08T13:42:35;22.83;;;15.23;;
13331;SDS011;6735;51.456;12.626;2024-03-08T13:45:08;21.43;;;14.57;;
13331;SDS011;6735;51.456;12.626;2024-03-08T13:47:40;24.33;;;14.67;;
13331;SDS011;6735;51.456;12.626;2024-03-08T13:50:06;20.73;;;14.67;;
13331;SDS011;6735;51.456;12.626;2024-03-08T13:52:35;20.77;;;15.73;;
13331;SDS011;6735;51.456;12.626;2024-03-08T13:55:01;20.87;;;15.03;;
13331;SDS011;6735;51.456;12.626;2024-03-08T13:57:26;23.50;;;14.77;;
13331;SDS011;6735;51.456;12.626;2024-03-08T13:59:55;21.77;;;15.53;;
13331;SDS011;6735;51.456;12.626;2024-03-08T14:02:20;22.57;;;15.47;;
13331;SDS011;6735;51.456;12.626;2024-03-08T14:04:47;22.80;;;14.77;;
13331;SDS011;6735;51.456;12.626;2024-03-08T14:07:14;23.27;;;15.47;;
13331;SDS011;6735;51.456;12.626;2024-03-08T14:09:41;21.67;;;14.73;;
13331;SDS011;6735;51.456;12.626;2024-03-08T14:12:08;20.97;;;14.53;;
13331;SDS011;6735;51.456;12.626;2024-03-08T14:14:34;22.90;;;14.80;;
13331;SDS011;6735;51.456;12.626;2024-03-08T14:17:00;20.77;;;15.03;;
13331;SDS011;6735;51.456;12.626;2024-03-08T14:19:26;20.67;;;13.63;;
13331;SDS011;6735;51.456;12.626;2024-03-08T14:21:52;26.20;;;15.10;;
13331;SDS011;6735;51.456;12.626;2024-03-08T14:24:18;20.80;;;14.00;;
13331;SDS011;6735;51.456;12.626;2024-03-08T14:26:44;24.40;;;15.50;;
13331;SDS011;6735;51.456;12.626;2024-03-08T14:29:10;22.57;;;13.93;;